Flight Track Log - Related Links

Times and Time Zones

All times are in EDT time to prevent confusion due to time zone crossing. See the SWA407 flight status page for this flight to view local times or setup timezone preferences in your user account.

Time Position Orientation Groundspeed Altitude Reporting Facility
EDT Latitude Longitude Course Direction KTS MPH feet Rate Location/Type
Thu 06:23:05 PM 33.6500 -84.3833 73° East 173 199 2,300  Level Atlanta TRACON
Thu 06:24:05 PM 33.6667 -84.3167 73° East 241 277 3,900 2,300 Climbing Atlanta TRACON
Thu 06:25:05 PM 33.7333 -84.2833 23° Northeast 295 339 6,900 3,000 Climbing Atlanta TRACON
Thu 06:26:05 PM 33.8000 -84.3167 337° Northwest 301 346 9,900 2,179 Climbing Atlanta TRACON
Thu 06:27:53 PM 33.8100 -84.5064 274° West 344 396 13,000 1,964 Climbing Atlanta Center
Thu 06:28:53 PM 33.7886 -84.6211 257° West 360 414 15,400 2,350 Climbing Atlanta Center
Thu 06:29:53 PM 33.7236 -84.7206 232° Southwest 355 409 17,700 2,350 Climbing Atlanta Center
Thu 06:30:53 PM 33.6561 -84.8250 232° Southwest 380 437 20,100 2,450 Climbing Atlanta Center
Thu 06:31:53 PM 33.5967 -84.9542 241° Southwest 405 466 22,600 2,150 Climbing Atlanta Center
Thu 06:32:53 PM 33.5417 -85.0706 240° Southwest 405 466 24,400 1,750 Climbing Atlanta Center
Thu 06:33:53 PM 33.4656 -85.1719 228° Southwest 412 474 26,100 1,500 Climbing Atlanta Center
Thu 06:34:53 PM 33.3811 -85.2753 226° Southwest 427 491 27,400 1,250 Climbing Atlanta Center
Thu 06:35:53 PM 33.2964 -85.3758 225° Southwest 427 491 28,600 1,250 Climbing Atlanta Center
Thu 06:36:53 PM 33.2181 -85.4742 226° Southwest 436 502 29,900 1,400 Climbing Atlanta Center
Thu 06:37:53 PM 33.1314 -85.5719 223° Southwest 436 502 31,400 1,650 Climbing Atlanta Center
Thu 06:38:53 PM 33.0467 -85.6744 225° Southwest 436 502 33,200 1,550 Climbing Atlanta Center
Thu 06:39:53 PM 32.9658 -85.7744 226° Southwest 431 496 34,500 1,150 Climbing Atlanta Center
Thu 06:40:53 PM 32.8831 -85.8717 225° Southwest 426 490 35,500 750 Climbing Atlanta Center
Thu 06:41:53 PM 32.7958 -85.9736 225° Southwest 426 490 36,000 250 Climbing Atlanta Center
Thu 06:42:53 PM 32.7128 -86.0756 226° Southwest 426 490 36,000  Level Atlanta Center
Thu 06:43:53 PM 32.6278 -86.1747 225° Southwest 426 490 36,000  Level Atlanta Center
Thu 06:44:53 PM 32.5444 -86.2761 226° Southwest 426 490 36,000  Level Atlanta Center
Thu 06:45:53 PM 32.4464 -86.3894 224° Southwest 434 499 36,000  Level Atlanta Center
Thu 06:46:53 PM 32.3778 -86.4836 229° Southwest 434 499 36,000  Level Atlanta Center
Thu 06:47:53 PM 32.2922 -86.5819 224° Southwest 429 494 36,000  Level Atlanta Center
Thu 06:48:53 PM 32.2089 -86.6800 225° Southwest 424 488 36,000  Level Atlanta Center
Thu 06:49:53 PM 32.1086 -86.7850 222° Southwest 429 494 36,000  Level Atlanta Center
Thu 06:50:53 PM 32.0269 -86.8831 226° Southwest 429 494 36,000  Level Atlanta Center
Thu 06:51:53 PM 31.9411 -86.9783 223° Southwest 429 494 36,000  Level Atlanta Center
Thu 06:52:53 PM 31.8553 -87.0756 224° Southwest 429 494 36,000  Level Atlanta Center
Thu 06:53:53 PM 31.7736 -87.1756 226° Southwest 429 494 36,000  Level Atlanta Center
Thu 06:54:53 PM 31.6897 -87.2703 224° Southwest 424 488 36,000  Level Atlanta Center
Thu 06:55:53 PM 31.6208 -87.3556 227° Southwest 418 481 36,000  Level Atlanta Center
Thu 06:57:54 PM 31.4503 -87.5417 223° Southwest 414 476 36,000  Level Houston Center
Thu 06:58:56 PM 31.3669 -87.6358 224° Southwest 415 478 36,000  Level Houston Center
Thu 06:59:58 PM 31.2681 -87.7489 224° Southwest 414 476 36,000  Level Houston Center
Thu 07:01:01 PM 31.1981 -87.8297 225° Southwest 415 478 36,000  Level Houston Center
Thu 07:02:03 PM 31.1961 -87.9750 269° West 399 459 36,000  Level Houston Center
Thu 07:03:05 PM 31.2300 -88.0872 289° West 394 453 36,000  Level Houston Center
Thu 07:04:07 PM 31.2644 -88.2097 288° West 403 464 36,000  Level Houston Center
Thu 07:05:09 PM 31.3036 -88.3542 288° West 394 453 36,000  Level Houston Center
Thu 07:06:11 PM 31.3375 -88.4744 288° West 392 451 36,000  Level Houston Center
Thu 07:07:13 PM 31.3731 -88.5978 289° West 400 460 36,000  Level Houston Center
Thu 07:08:15 PM 31.4078 -88.7186 289° West 399 459 36,000  Level Houston Center
Thu 07:09:18 PM 31.4411 -88.8386 288° West 392 451 36,000  Level Houston Center
Thu 07:10:20 PM 31.4817 -88.9786 289° West 383 441 36,000  Level Houston Center
Thu 07:11:22 PM 31.5158 -89.0969 289° West 384 442 36,000  Level Houston Center
Thu 07:12:24 PM 31.5492 -89.2147 288° West 383 441 36,000  Level Houston Center
Thu 07:13:26 PM 31.5828 -89.3328 289° West 383 441 36,000  Level Houston Center
Thu 07:14:28 PM 31.6142 -89.4500 287° West 379 436 36,000  Level Houston Center
Thu 07:15:30 PM 31.6481 -89.5792 287° West 382 440 36,000  Level Houston Center
Thu 07:16:05 PM 31.6700 -89.6592 288° West 378 435 36,000  Level Memphis Center
Thu 07:17:05 PM 31.7039 -89.7786 288° West 385 443 36,000  Level Memphis Center
Thu 07:18:05 PM 31.7358 -89.8981 287° West 385 443 36,000  Level Memphis Center
Thu 07:19:05 PM 31.7675 -90.0178 287° West 385 443 36,000  Level Memphis Center
Thu 07:20:05 PM 31.7992 -90.1350 288° West 380 437 36,000  Level Memphis Center
Thu 07:20:29 PM 31.8081 -90.1739 285° West 384 442 36,000  Level Houston Center
Thu 07:21:31 PM 31.8408 -90.2883 289° West 375 432 36,000  Level Houston Center
Thu 07:22:33 PM 31.8719 -90.4031 288° West 371 427 36,000  Level Houston Center
Thu 07:23:05 PM 31.8911 -90.4822 286° West 380 437 36,000  Level Memphis Center
Thu 07:24:05 PM 31.9222 -90.5972 288° West 380 437 36,000  Level Memphis Center
Thu 07:24:37 PM 31.9397 -90.6539 290° West 367 422 36,000  Level Houston Center
Thu 07:25:39 PM 31.9717 -90.7692 288° West 369 425 36,000  Level Houston Center
Thu 07:26:42 PM 32.0025 -90.8839 288° West 369 425 36,000  Level Houston Center
Thu 07:27:44 PM 32.0336 -90.9989 288° West 370 426 36,000  Level Houston Center
Thu 07:28:46 PM 32.0614 -91.1153 286° West 372 428 36,000  Level Houston Center
Thu 07:29:48 PM 32.1011 -91.2567 288° West 378 435 36,000  Level Houston Center
Thu 07:30:50 PM 32.1294 -91.3719 286° West 372 428 36,000  Level Houston Center
Thu 07:31:52 PM 32.1581 -91.4883 286° West 371 427 36,000  Level Houston Center
Thu 07:32:54 PM 32.1878 -91.6031 287° West 369 425 36,000  Level Houston Center
Thu 07:33:56 PM 32.2167 -91.7183 287° West 368 423 36,000  Level Houston Center
Thu 07:34:59 PM 32.2528 -91.8575 287° West 370 426 36,000  Level Houston Center
Thu 07:35:39 PM 32.2711 -91.9250 288° West 372 428 36,000  Level Fort Worth Center
Thu 07:36:01 PM 32.2814 -91.9717 285° West 367 422 36,000  Level Houston Center
Thu 07:37:03 PM 32.3103 -92.0861 287° West 366 421 36,000  Level Houston Center
Thu 07:38:05 PM 32.3403 -92.2031 287° West 369 425 36,000  Level Houston Center
Thu 07:39:07 PM 32.3686 -92.3192 286° West 370 426 36,000  Level Houston Center
Thu 07:39:39 PM 32.3867 -92.3878 287° West 372 428 36,000  Level Fort Worth Center
Thu 07:40:39 PM 32.4203 -92.5014 289° West 367 422 36,000  Level Fort Worth Center
Thu 07:41:39 PM 32.4478 -92.6206 285° West 367 422 36,000  Level Fort Worth Center
Thu 07:42:39 PM 32.4775 -92.7419 286° West 374 430 36,000  Level Fort Worth Center
Thu 07:43:40 PM 32.5047 -92.8614 285° West 374 430 36,000 650 Level Fort Worth Center
Thu 07:44:39 PM 32.5317 -92.9758 286° West 374 430 37,300 1,008 Climbing Fort Worth Center
Thu 07:45:39 PM 32.5614 -93.1025 286° West 374 430 38,000 350 Climbing Fort Worth Center
Thu 07:46:39 PM 32.5903 -93.2194 286° West 374 430 38,000  Level Fort Worth Center
Thu 07:47:39 PM 32.6192 -93.3389 286° West 374 430 38,000  Level Fort Worth Center
Thu 07:48:39 PM 32.6458 -93.4561 285° West 374 430 38,000  Level Fort Worth Center
Thu 07:49:39 PM 32.6725 -93.5683 286° West 374 430 38,000  Level Fort Worth Center
Thu 07:50:39 PM 32.7008 -93.6833 286° West 374 430 38,000  Level Fort Worth Center
Thu 07:51:39 PM 32.7272 -93.7983 285° West 374 430 38,000  Level Fort Worth Center
Thu 07:52:39 PM 32.7533 -93.9133 285° West 369 425 38,000  Level Fort Worth Center
Thu 07:53:39 PM 32.7817 -94.0283 286° West 369 425 38,000  Level Fort Worth Center
Thu 07:54:39 PM 32.8056 -94.1411 284° West 369 425 38,000  Level Fort Worth Center
Thu 07:55:51 PM 32.8361 -94.2758 285° West 359 413 38,000  Level Fort Worth Center
Thu 07:56:51 PM 32.8617 -94.3864 285° West 359 413 38,000  Level Fort Worth Center
Thu 07:57:51 PM 32.8875 -94.5017 285° West 353 406 38,000  Level Fort Worth Center
Thu 07:58:51 PM 32.9150 -94.6147 286° West 353 406 38,000  Level Fort Worth Center
Thu 07:59:51 PM 32.9425 -94.7275 286° West 353 406 38,000  Level Fort Worth Center
Thu 08:00:51 PM 32.9678 -94.8433 285° West 358 412 38,000  Level Fort Worth Center
Thu 08:01:51 PM 32.9911 -94.9564 284° West 358 412 38,000  Level Fort Worth Center
Thu 08:02:51 PM 33.0161 -95.0722 284° West 358 412 38,000  Level Fort Worth Center
Thu 08:03:51 PM 33.0386 -95.1633 286° West 358 412 38,000  Level Fort Worth Center
Thu 08:04:51 PM 33.0661 -95.2892 285° West 358 412 38,000  Level Fort Worth Center
Thu 08:05:51 PM 33.0908 -95.4025 285° West 358 412 38,000  Level Fort Worth Center
Thu 08:06:51 PM 33.1175 -95.5161 286° West 358 412 38,000  Level Fort Worth Center
Thu 08:07:51 PM 33.1486 -95.6369 287° West 358 412 38,000  Level Fort Worth Center
Thu 08:08:51 PM 33.1731 -95.7531 284° West 353 406 38,000  Level Fort Worth Center
Thu 08:09:51 PM 33.1997 -95.8644 286° West 353 406 38,000  Level Fort Worth Center
Thu 08:10:51 PM 33.2217 -95.9756 283° West 353 406 38,000  Level Fort Worth Center
Thu 08:11:51 PM 33.2481 -96.0844 286° West 353 406 38,000  Level Fort Worth Center
Thu 08:12:51 PM 33.2700 -96.1986 283° West 353 406 38,000  Level Fort Worth Center
Thu 08:13:51 PM 33.2942 -96.3075 285° West 353 406 38,000  Level Fort Worth Center
Thu 08:14:51 PM 33.3158 -96.4092 284° West 353 406 38,000  Level Fort Worth Center
Thu 08:15:51 PM 33.3375 -96.5183 283° West 348 400 38,000  Level Fort Worth Center
Thu 08:16:51 PM 33.3611 -96.6275 285° West 348 400 38,000  Level Fort Worth Center
Thu 08:17:51 PM 33.3869 -96.7417 285° West 353 406 38,000  Level Fort Worth Center
Thu 08:18:51 PM 33.4083 -96.8561 283° West 359 413 38,000  Level Fort Worth Center
Thu 08:19:51 PM 33.4317 -96.9703 284° West 353 406 38,000  Level Fort Worth Center
Thu 08:20:51 PM 33.4550 -97.0897 283° West 358 412 38,000  Level Fort Worth Center
Thu 08:21:51 PM 33.4803 -97.2067 285° West 358 412 38,000  Level Fort Worth Center
Thu 08:22:51 PM 33.5033 -97.3214 284° West 358 412 38,000  Level Fort Worth Center
Thu 08:23:51 PM 33.5283 -97.4408 284° West 358 412 38,000  Level Fort Worth Center
Thu 08:24:51 PM 33.5533 -97.5681 283° West 363 418 38,000  Level Fort Worth Center
Thu 08:25:51 PM 33.5761 -97.6903 283° West 363 418 38,000  Level Fort Worth Center
Thu 08:26:51 PM 33.6008 -97.8100 284° West 363 418 38,000  Level Fort Worth Center
Thu 08:27:51 PM 33.6233 -97.9297 283° West 368 423 38,000  Level Fort Worth Center
Thu 08:28:51 PM 33.6458 -98.0447 283° West 368 423 38,000  Level Fort Worth Center
Thu 08:29:51 PM 33.6681 -98.1647 283° West 368 423 38,000  Level Fort Worth Center
Thu 08:30:51 PM 33.6925 -98.2822 284° West 369 425 38,000  Level Fort Worth Center
Thu 08:31:51 PM 33.7144 -98.3997 283° West 369 425 38,000  Level Fort Worth Center
Thu 08:32:51 PM 33.7386 -98.5175 284° West 369 425 38,000  Level Fort Worth Center
Thu 08:33:51 PM 33.7583 -98.6353 281° West 369 425 38,000  Level Fort Worth Center
Thu 08:34:51 PM 33.7822 -98.7506 284° West 364 419 38,000  Level Fort Worth Center
Thu 08:35:51 PM 33.8039 -98.8558 284° West 364 419 38,000  Level Fort Worth Center
Thu 08:36:51 PM 33.8253 -98.9861 281° West 364 419 38,000  Level Fort Worth Center
Thu 08:37:51 PM 33.8467 -99.1017 283° West 359 413 38,000  Level Fort Worth Center
Thu 08:38:51 PM 33.8681 -99.2219 282° West 359 413 38,000  Level Fort Worth Center
Thu 08:39:51 PM 33.8914 -99.3400 283° West 359 413 38,000  Level Fort Worth Center
Thu 08:40:51 PM 33.9125 -99.4583 282° West 359 413 38,000  Level Fort Worth Center
Thu 08:41:51 PM 33.9356 -99.5789 283° West 359 413 38,000  Level Fort Worth Center
Thu 08:42:51 PM 33.9561 -99.6997 282° West 359 413 38,000  Level Fort Worth Center
Thu 08:43:51 PM 33.9789 -99.8206 283° West 364 419 38,000  Level Fort Worth Center
Thu 08:44:51 PM 33.9997 -99.9414 282° West 375 432 38,000  Level Fort Worth Center
Thu 08:45:51 PM 34.0222 -100.0622 283° West 370 426 38,000  Level Fort Worth Center
Thu 08:46:51 PM 34.0444 -100.1883 282° West 376 433 38,000  Level Fort Worth Center
Thu 08:47:51 PM 34.0644 -100.3167 281° West 376 433 38,000  Level Fort Worth Center
Thu 08:48:51 PM 34.0867 -100.4328 283° West 376 433 38,000  Level Fort Worth Center
Thu 08:49:51 PM 34.1086 -100.5589 282° West 376 433 38,000  Level Fort Worth Center
Thu 08:50:51 PM 34.1283 -100.6853 281° West 376 433 38,000  Level Fort Worth Center
Thu 08:51:51 PM 34.1503 -100.8064 282° West 375 432 38,000  Level Fort Worth Center
Thu 08:52:51 PM 34.1719 -100.9303 282° West 375 432 38,000  Level Fort Worth Center
Thu 08:53:51 PM 34.1936 -101.0467 283° West 386 444 38,000  Level Fort Worth Center
Thu 08:54:51 PM 34.2147 -101.1806 281° West 391 450 38,000  Level Fort Worth Center
Thu 08:55:51 PM 34.2339 -101.2969 281° West 383 441 38,000  Level Fort Worth Center
Thu 08:56:51 PM 34.2550 -101.4286 281° West 383 441 38,000  Level Fort Worth Center
Thu 08:57:51 PM 34.2719 -101.5425 280° West 371 427 38,000  Level Fort Worth Center
Thu 08:58:51 PM 34.2947 -101.6769 282° West 377 434 38,000  Level Fort Worth Center
Thu 08:59:51 PM 34.3117 -101.7858 281° West 372 428 38,000  Level Fort Worth Center
Thu 09:02:13 PM 34.3583 -102.0708 281° West 373 429 38,000  Level Albuquerque Center
Thu 09:03:14 PM 34.3786 -102.1969 281° West 376 433 38,000  Level Albuquerque Center
Thu 09:04:16 PM 34.4025 -102.3475 281° West 380 437 38,000  Level Albuquerque Center
Thu 09:05:18 PM 34.4222 -102.4733 281° West 380 437 38,000  Level Albuquerque Center
Thu 09:06:20 PM 34.4422 -102.5972 281° West 378 435 38,000  Level Albuquerque Center
Thu 09:07:21 PM 34.4614 -102.7208 281° West 374 430 38,000  Level Albuquerque Center
Thu 09:08:23 PM 34.4800 -102.8467 280° West 377 434 38,000  Level Albuquerque Center
Thu 09:09:25 PM 34.4994 -102.9769 280° West 378 435 38,000  Level Albuquerque Center
Thu 09:10:27 PM 34.5192 -103.1053 281° West 382 440 38,000  Level Albuquerque Center
Thu 09:11:29 PM 34.5383 -103.2319 280° West 380 437 38,000  Level Albuquerque Center
Thu 09:12:30 PM 34.5603 -103.3806 280° West 379 436 38,000  Level Albuquerque Center
Thu 09:13:32 PM 34.5792 -103.5092 280° West 382 440 38,000  Level Albuquerque Center
Thu 09:14:34 PM 34.5986 -103.6375 280° West 383 441 38,000  Level Albuquerque Center
Thu 09:15:36 PM 34.6167 -103.7661 280° West 382 440 38,000  Level Albuquerque Center
Thu 09:16:37 PM 34.6353 -103.8944 280° West 383 441 38,000  Level Albuquerque Center
Thu 09:17:39 PM 34.6542 -104.0256 280° West 387 445 38,000  Level Albuquerque Center
Thu 09:18:41 PM 34.6725 -104.1564 280° West 389 448 38,000  Level Albuquerque Center
Thu 09:19:42 PM 34.6906 -104.2872 280° West 388 447 38,000  Level Albuquerque Center
Thu 09:20:44 PM 34.7086 -104.4183 280° West 389 448 38,000  Level Albuquerque Center
Thu 09:21:45 PM 34.7269 -104.5514 280° West 392 451 38,000  Level Albuquerque Center
Thu 09:22:47 PM 34.7464 -104.6833 280° West 392 451 38,000  Level Albuquerque Center
Thu 09:23:49 PM 34.7631 -104.8153 279° West 391 450 38,000  Level Albuquerque Center
Thu 09:24:50 PM 34.7806 -104.9450 279° West 387 445 38,000  Level Albuquerque Center
Thu 09:25:52 PM 34.8025 -105.0989 280° West 389 448 38,000  Level Albuquerque Center
Thu 09:26:53 PM 34.8206 -105.2303 280° West 389 448 38,000  Level Albuquerque Center
Thu 09:27:55 PM 34.8378 -105.3619 279° West 391 450 38,000  Level Albuquerque Center
Thu 09:28:57 PM 34.8542 -105.4944 279° West 391 450 38,000  Level Albuquerque Center
Thu 09:29:58 PM 34.8742 -105.6272 280° West 394 453 38,000  Level Albuquerque Center
Thu 09:31:00 PM 34.8892 -105.7592 278° West 391 450 38,000  Level Albuquerque Center
Thu 09:32:01 PM 34.9058 -105.8947 279° West 390 449 38,000  Level Albuquerque Center
Thu 09:33:03 PM 34.9217 -106.0239 279° West 387 445 38,000  Level Albuquerque Center
Thu 09:34:04 PM 34.9372 -106.1558 278° West 391 450 38,000  Level Albuquerque Center
Thu 09:35:06 PM 34.9536 -106.2872 279° West 393 452 38,000  Level Albuquerque Center
Thu 09:36:07 PM 34.9694 -106.4194 278° West 395 455 38,000  Level Albuquerque Center
Thu 09:37:09 PM 34.9869 -106.5681 278° West 402 463 38,000  Level Albuquerque Center
Thu 09:38:11 PM 35.0011 -106.6967 278° West 404 465 38,000  Level Albuquerque Center
Thu 09:39:12 PM 35.0192 -106.8464 278° West 401 461 38,000  Level Albuquerque Center
Thu 09:40:15 PM 35.0372 -106.9714 280° West 395 455 38,000  Level Albuquerque Center
Thu 09:41:15 PM 35.0553 -107.1200 278° West 395 455 38,000  Level Albuquerque Center
Thu 09:42:17 PM 35.0656 -107.2328 276° West 396 456 38,000  Level Albuquerque Center
Thu 09:43:18 PM 35.0833 -107.3911 278° West 395 455 38,000  Level Albuquerque Center
Thu 09:44:20 PM 35.0981 -107.5206 278° West 388 447 38,000  Level Albuquerque Center
Thu 09:45:21 PM 35.1125 -107.6467 278° West 389 448 38,000  Level Albuquerque Center
Thu 09:46:23 PM 35.1292 -107.7908 278° West 385 443 38,000  Level Albuquerque Center
Thu 09:47:25 PM 35.1428 -107.9156 278° West 387 445 38,000  Level Albuquerque Center
Thu 09:48:27 PM 35.1567 -108.0419 278° West 390 449 38,000  Level Albuquerque Center
Thu 09:49:28 PM 35.1719 -108.1883 277° West 389 448 38,000  Level Albuquerque Center
Thu 09:50:29 PM 35.1856 -108.3142 278° West 389 448 38,000  Level Albuquerque Center
Thu 09:51:31 PM 35.2022 -108.4600 278° West 388 447 38,000  Level Albuquerque Center
Thu 09:52:32 PM 35.2150 -108.5858 277° West 388 447 38,000  Level Albuquerque Center
Thu 09:53:34 PM 35.2283 -108.7142 277° West 393 452 38,000  Level Albuquerque Center
Thu 09:54:35 PM 35.2436 -108.8636 277° West 394 453 38,000  Level Albuquerque Center
Thu 09:55:37 PM 35.2572 -108.9928 277° West 397 457 38,000  Level Albuquerque Center
Thu 09:56:38 PM 35.2719 -109.1444 277° West 400 460 38,000  Level Albuquerque Center
Thu 09:57:40 PM 35.2850 -109.2739 277° West 399 459 38,000  Level Albuquerque Center
Thu 09:58:41 PM 35.2983 -109.4044 277° West 401 461 38,000  Level Albuquerque Center
Thu 09:59:43 PM 35.3114 -109.5558 276° West 400 460 38,000  Level Albuquerque Center
Thu 10:00:44 PM 35.3242 -109.6869 277° West 402 463 38,000  Level Albuquerque Center
Thu 10:01:46 PM 35.3408 -109.8433 277° West 416 479 38,000  Level Albuquerque Center
Thu 10:02:47 PM 35.3517 -109.9764 276° West 412 474 38,000  Level Albuquerque Center
Thu 10:03:49 PM 35.3631 -110.1078 276° West 408 470 38,000  Level Albuquerque Center
Thu 10:04:50 PM 35.3772 -110.2628 276° West 408 470 38,000  Level Albuquerque Center
Thu 10:05:52 PM 35.3872 -110.3975 275° West 417 480 38,000  Level Albuquerque Center
Thu 10:06:53 PM 35.3986 -110.5544 275° West 415 478 38,000  Level Albuquerque Center
Thu 10:07:55 PM 35.4108 -110.6903 276° West 418 481 38,000  Level Albuquerque Center
Thu 10:08:56 PM 35.4231 -110.8261 276° West 418 481 38,000  Level Albuquerque Center
Thu 10:09:58 PM 35.4369 -110.9839 276° West 417 480 38,000  Level Albuquerque Center
Thu 10:10:59 PM 35.4478 -111.1178 276° West 415 478 38,000  Level Albuquerque Center
Thu 10:12:01 PM 35.4606 -111.2761 276° West 417 480 38,000  Level Albuquerque Center
Thu 10:13:02 PM 35.4722 -111.4086 276° West 412 474 38,000  Level Albuquerque Center
Thu 10:14:04 PM 35.4836 -111.5600 275° West 423 487 38,000  Level Albuquerque Center
Thu 10:15:05 PM 35.4947 -111.6981 276° West 415 478 38,000  Level Albuquerque Center
Thu 10:16:07 PM 35.5056 -111.8375 275° West 413 475 38,000  Level Albuquerque Center
Thu 10:17:08 PM 35.5161 -111.9775 275° West 414 476 38,000  Level Albuquerque Center
Thu 10:18:09 PM 35.5269 -112.1178 275° West 416 479 38,000  Level Albuquerque Center
Thu 10:19:11 PM 35.5369 -112.2594 275° West 417 480 38,000  Level Albuquerque Center
Thu 10:20:04 PM 35.5481 -112.3992 276° West 414 476 38,000  Level Los Angeles Center
Thu 10:21:05 PM 35.5581 -112.5372 275° West 411 473 38,000  Level Los Angeles Center
Thu 10:22:07 PM 35.5683 -112.6856 275° West 407 468 38,000  Level Los Angeles Center
Thu 10:23:09 PM 35.5778 -112.8214 275° West 402 463 38,000  Level Los Angeles Center
Thu 10:24:11 PM 35.5883 -112.9772 275° West 409 471 38,000  Level Los Angeles Center
Thu 10:25:13 PM 35.6128 -113.1122 283° West 405 466 38,000  Level Los Angeles Center
Thu 10:26:15 PM 35.6433 -113.2472 286° West 410 472 38,000  Level Los Angeles Center
Thu 10:27:17 PM 35.6719 -113.3742 286° West 411 473 38,000  Level Los Angeles Center
Thu 10:28:18 PM 35.7078 -113.5347 285° West 410 472 38,000  Level Los Angeles Center
Thu 10:29:20 PM 35.7339 -113.6514 285° West 406 467 38,000  Level Los Angeles Center
Thu 10:30:22 PM 35.7694 -113.8125 285° West 405 466 38,000  Level Los Angeles Center
Thu 10:31:24 PM 35.7983 -113.9447 285° West 401 461 38,000  Level Los Angeles Center
Thu 10:32:25 PM 35.8283 -114.0797 285° West 405 466 38,000  Level Los Angeles Center
Thu 10:33:27 PM 35.8575 -114.2158 285° West 409 471 38,000  Level Los Angeles Center
Thu 10:34:29 PM 35.8869 -114.3539 285° West 413 475 38,000  Level Los Angeles Center
Thu 10:35:31 PM 35.9161 -114.4900 285° West 412 474 38,000  Level Los Angeles Center
Thu 10:36:33 PM 35.9461 -114.6281 285° West 416 479 38,000  Level Los Angeles Center
Thu 10:37:35 PM 35.9808 -114.7942 285° West 416 479 38,000  Level Los Angeles Center
Thu 10:38:36 PM 36.0228 -114.9269 291° West 415 478 38,000 -341 Level Los Angeles Center
Thu 10:39:38 PM 36.0789 -115.0517 299° West 416 479 37,300 -774 Descending Los Angeles Center
Thu 10:40:40 PM 36.1331 -115.1753 299° West 411 473 36,400 -629 Descending Los Angeles Center
Thu 10:41:42 PM 36.1856 -115.2953 298° West 398 458 36,000 -194 Descending Los Angeles Center
Thu 10:42:44 PM 36.2347 -115.4086 298° West 377 434 36,000  Level Los Angeles Center
Thu 10:43:45 PM 36.2858 -115.5250 299° West 380 437 36,000  Level Los Angeles Center
Thu 10:44:47 PM 36.3397 -115.6558 297° West 390 449 36,000  Level Los Angeles Center
Thu 10:45:49 PM 36.3903 -115.7722 298° West 385 443 36,000  Level Los Angeles Center
Thu 10:46:51 PM 36.4486 -115.9083 298° West 386 444 36,000  Level Los Angeles Center
Thu 10:47:53 PM 36.4989 -116.0281 298° West 390 449 36,000  Level Los Angeles Center
Thu 10:48:54 PM 36.5508 -116.1467 299° West 390 449 36,000  Level Los Angeles Center
Thu 10:49:56 PM 36.6006 -116.2678 297° West 392 451 36,000  Level Los Angeles Center
Thu 10:50:58 PM 36.6517 -116.3883 298° West 393 452 36,000  Level Los Angeles Center
Thu 10:52:00 PM 36.7031 -116.5097 298° West 395 455 36,000  Level Los Angeles Center
Thu 10:53:02 PM 36.7539 -116.6328 297° West 397 457 36,000  Level Los Angeles Center
Thu 10:54:03 PM 36.8081 -116.7536 299° West 398 458 36,000  Level Los Angeles Center
Thu 10:55:05 PM 36.9167 -116.8425 327° Northwest 391 450 36,000  Level Los Angeles Center
Thu 10:56:07 PM 37.0069 -116.9186 326° Northwest 389 448 36,000  Level Los Angeles Center
Thu 10:57:09 PM 37.0967 -116.9947 326° Northwest 389 448 36,000  Level Los Angeles Center
Thu 10:58:11 PM 37.1878 -117.0717 326° Northwest 393 452 36,000  Level Los Angeles Center
Thu 10:59:12 PM 37.2533 -117.1806 307° West 415 478 36,000  Level Los Angeles Center
Thu 11:00:14 PM 37.2639 -117.2936 277° West 415 478 36,000  Level Los Angeles Center
Thu 11:01:24 PM 37.2875 -117.4944 278° West 412 474 36,000  Level Oakland Center
Thu 11:02:25 PM 37.3044 -117.6369 279° West 410 472 36,000  Level Oakland Center
Thu 11:03:26 PM 37.3197 -117.7789 278° West 410 472 36,000  Level Oakland Center
Thu 11:04:27 PM 37.3353 -117.9194 278° West 407 468 36,000  Level Oakland Center
Thu 11:05:29 PM 37.3506 -118.0606 278° West 406 467 36,000  Level Oakland Center
Thu 11:06:30 PM 37.3658 -118.2028 278° West 407 468 36,000  Level Oakland Center
Thu 11:07:31 PM 37.3811 -118.3447 278° West 408 470 36,000  Level Oakland Center
Thu 11:08:32 PM 37.3958 -118.4892 277° West 414 476 36,000  Level Oakland Center
Thu 11:09:34 PM 37.4136 -118.6625 277° West 416 479 36,000  Level Oakland Center
Thu 11:10:35 PM 37.4283 -118.8061 277° West 422 486 36,000  Level Oakland Center
Thu 11:11:36 PM 37.4408 -118.9436 277° West 416 479 36,000  Level Oakland Center
Thu 11:12:38 PM 37.4553 -119.0911 277° West 423 487 36,000 -439 Level Oakland Center
Thu 11:13:39 PM 37.4733 -119.2467 278° West 455 524 35,100 -885 Descending Oakland Center
Thu 11:14:40 PM 37.4878 -119.3939 277° West 433 498 34,200 -541 Descending Oakland Center
Thu 11:15:41 PM 37.5008 -119.5472 276° West 429 494 34,000 -98 Descending Oakland Center
Thu 11:16:42 PM 37.5133 -119.6947 276° West 426 490 34,000  Level Oakland Center
Thu 11:17:44 PM 37.5283 -119.8392 278° West 404 465 34,000 -98 Level Oakland Center
Thu 11:18:45 PM 37.5414 -119.9906 276° West 433 498 33,800 -689 Descending Oakland Center
Thu 11:19:46 PM 37.5583 -120.1639 277° West 422 486 32,600 -1,033 Descending Oakland Center
Thu 11:20:47 PM 37.5725 -120.3097 277° West 419 482 31,700 -1,279 Descending Oakland Center
Thu 11:21:48 PM 37.5842 -120.4597 276° West 426 490 30,000 -1,967 Descending Oakland Center
Thu 11:22:49 PM 37.5978 -120.5956 277° West 398 458 27,700 -2,410 Descending Oakland Center
Thu 11:23:50 PM 37.6086 -120.7242 276° West 372 428 25,100 -2,244 Descending Oakland Center
Thu 11:24:52 PM 37.6094 -120.8519 271° West 366 421 23,100 -1,951 Descending Oakland Center
Thu 11:25:53 PM 37.5994 -120.9822 265° West 370 426 21,100 -1,967 Descending Oakland Center
Thu 11:26:54 PM 37.5906 -121.1075 265° West 361 415 19,100 -1,820 Descending Oakland Center
Thu 11:27:55 PM 37.5817 -121.2217 264° West 353 406 17,400 -1,967 Descending Oakland Center
Thu 11:28:56 PM 37.5728 -121.3428 265° West 348 400 15,100 -2,164 Descending Oakland Center
Thu 11:29:57 PM 37.5608 -121.4900 264° West 352 405 13,000 -1,918 Descending Oakland Center
Thu 11:30:58 PM 37.5397 -121.6042 257° West 336 387 11,200 -1,574 Descending Oakland Center
Thu 11:31:59 PM 37.5169 -121.7128 255° West 324 373 9,800 -1,488 Descending Oakland Center
Thu 11:33:03 PM 37.5000 -121.8167 258° West 292 336 8,100 -1,338 Descending Northern Cal TRACON
Thu 11:34:09 PM 37.4833 -121.9333 260° West 286 329 6,900 -1,143 Descending Northern Cal TRACON
Thu 11:35:09 PM 37.5167 -122.0167 297° West 274 315 5,700 -1,550 Descending Northern Cal TRACON
Thu 11:36:09 PM 37.5333 -122.1000 284° West 271 312 3,800 -1,461 Descending Northern Cal TRACON
Thu 11:37:04 PM 37.5581 -122.1753 293° West 267 307 2,900 -776 Descending Oakland Center
Thu 11:38:05 PM 37.5783 -122.2456 290° West 239 275 2,300 -878 Descending Oakland Center
Thu 11:39:07 PM 37.5881 -122.3003 283° West 191 220 1,100 -976 Descending Oakland Center
Thu 11:40:08 PM 37.6044 -122.3403 297° West 155 178 300 -787 Descending Oakland Center
Thu 11:42:00 PM 37.6167 -122.3667 322° Northwest  Level FlightAware Approximate

Login

Don't have an account? Register now (free) for customized features, flight alerts, and more!